sensor_id;sensor_type;location;lat;lon;timestamp;temperature;humidity
79571;DHT22;69034;49.444;7.758;2023-05-27T00:01:50;18.30;36.80
79571;DHT22;69034;49.444;7.758;2023-05-27T00:05:52;18.30;36.80
79571;DHT22;69034;49.444;7.758;2023-05-27T00:09:52;18.20;36.80
79571;DHT22;69034;49.444;7.758;2023-05-27T00:13:54;18.10;36.90
79571;DHT22;69034;49.444;7.758;2023-05-27T00:17:55;18.00;36.80
79571;DHT22;69034;49.444;7.758;2023-05-27T00:21:57;18.00;36.90
79571;DHT22;69034;49.444;7.758;2023-05-27T00:25:59;17.90;36.90
79571;DHT22;69034;49.444;7.758;2023-05-27T00:30:00;17.80;37.10
79571;DHT22;69034;49.444;7.758;2023-05-27T00:34:01;17.80;37.00
79571;DHT22;69034;49.444;7.758;2023-05-27T00:38:04;17.90;37.10
79571;DHT22;69034;49.444;7.758;2023-05-27T00:42:06;17.90;37.10
79571;DHT22;69034;49.444;7.758;2023-05-27T00:46:07;18.00;37.10
79571;DHT22;69034;49.444;7.758;2023-05-27T00:50:08;18.00;37.10
79571;DHT22;69034;49.444;7.758;2023-05-27T00:54:09;18.00;37.20
79571;DHT22;69034;49.444;7.758;2023-05-27T00:58:13;18.00;37.10
79571;DHT22;69034;49.444;7.758;2023-05-27T01:02:14;17.90;37.20
79571;DHT22;69034;49.444;7.758;2023-05-27T01:06:21;17.90;37.30
79571;DHT22;69034;49.444;7.758;2023-05-27T01:14:49;17.70;37.30
79571;DHT22;69034;49.444;7.758;2023-05-27T01:18:54;17.50;37.40
79571;DHT22;69034;49.444;7.758;2023-05-27T01:22:57;17.40;37.60
79571;DHT22;69034;49.444;7.758;2023-05-27T01:26:59;17.30;37.60
79571;DHT22;69034;49.444;7.758;2023-05-27T01:31:12;17.20;37.70
79571;DHT22;69034;49.444;7.758;2023-05-27T01:39:41;17.00;37.80
79571;DHT22;69034;49.444;7.758;2023-05-27T01:43:43;16.90;37.80
79571;DHT22;69034;49.444;7.758;2023-05-27T01:47:44;16.90;38.00
79571;DHT22;69034;49.444;7.758;2023-05-27T01:51:46;16.80;38.10
79571;DHT22;69034;49.444;7.758;2023-05-27T01:55:48;16.70;38.20
79571;DHT22;69034;49.444;7.758;2023-05-27T01:59:48;16.60;38.40
79571;DHT22;69034;49.444;7.758;2023-05-27T02:03:49;16.50;38.50
79571;DHT22;69034;49.444;7.758;2023-05-27T02:07:49;16.50;38.50
79571;DHT22;69034;49.444;7.758;2023-05-27T02:11:50;16.40;38.50
79571;DHT22;69034;49.444;7.758;2023-05-27T02:15:51;16.40;38.60
79571;DHT22;69034;49.444;7.758;2023-05-27T02:19:52;16.30;38.70
79571;DHT22;69034;49.444;7.758;2023-05-27T02:23:53;16.40;38.70
79571;DHT22;69034;49.444;7.758;2023-05-27T02:27:54;16.50;38.70
79571;DHT22;69034;49.444;7.758;2023-05-27T02:31:56;16.50;38.70
79571;DHT22;69034;49.444;7.758;2023-05-27T02:35:57;16.60;38.70
79571;DHT22;69034;49.444;7.758;2023-05-27T02:39:58;16.60;38.70
79571;DHT22;69034;49.444;7.758;2023-05-27T02:43:59;16.60;38.60
79571;DHT22;69034;49.444;7.758;2023-05-27T02:47:59;16.70;38.60
79571;DHT22;69034;49.444;7.758;2023-05-27T02:52:03;16.60;38.70
79571;DHT22;69034;49.444;7.758;2023-05-27T02:56:04;16.60;38.70
79571;DHT22;69034;49.444;7.758;2023-05-27T03:00:07;16.50;38.80
79571;DHT22;69034;49.444;7.758;2023-05-27T03:04:09;16.40;39.00
79571;DHT22;69034;49.444;7.758;2023-05-27T03:08:10;16.30;39.00
79571;DHT22;69034;49.444;7.758;2023-05-27T03:12:11;16.10;39.20
79571;DHT22;69034;49.444;7.758;2023-05-27T03:16:11;16.00;39.20
79571;DHT22;69034;49.444;7.758;2023-05-27T03:20:14;16.00;39.20
79571;DHT22;69034;49.444;7.758;2023-05-27T03:24:17;15.90;39.20
79571;DHT22;69034;49.444;7.758;2023-05-27T03:28:17;15.80;39.30
79571;DHT22;69034;49.444;7.758;2023-05-27T03:32:18;15.70;39.40
79571;DHT22;69034;49.444;7.758;2023-05-27T03:36:19;15.70;39.50
79571;DHT22;69034;49.444;7.758;2023-05-27T03:40:21;15.60;39.60
79571;DHT22;69034;49.444;7.758;2023-05-27T03:44:21;15.60;39.60
79571;DHT22;69034;49.444;7.758;2023-05-27T03:48:22;15.50;39.70
79571;DHT22;69034;49.444;7.758;2023-05-27T03:52:23;15.50;39.80
79571;DHT22;69034;49.444;7.758;2023-05-27T03:56:24;15.50;39.70
79571;DHT22;69034;49.444;7.758;2023-05-27T04:00:25;15.50;39.80
79571;DHT22;69034;49.444;7.758;2023-05-27T04:04:26;15.50;39.80
79571;DHT22;69034;49.444;7.758;2023-05-27T04:08:27;15.50;39.80
79571;DHT22;69034;49.444;7.758;2023-05-27T04:12:30;15.50;39.80
79571;DHT22;69034;49.444;7.758;2023-05-27T04:16:30;15.60;39.80
79571;DHT22;69034;49.444;7.758;2023-05-27T04:20:36;15.80;39.60
79571;DHT22;69034;49.444;7.758;2023-05-27T04:24:37;16.00;39.40
79571;DHT22;69034;49.444;7.758;2023-05-27T04:28:39;16.10;39.50
79571;DHT22;69034;49.444;7.758;2023-05-27T04:32:41;16.30;39.30
79571;DHT22;69034;49.444;7.758;2023-05-27T04:36:42;16.40;39.20
79571;DHT22;69034;49.444;7.758;2023-05-27T04:40:44;16.60;39.20
79571;DHT22;69034;49.444;7.758;2023-05-27T04:44:52;16.70;39.00
79571;DHT22;69034;49.444;7.758;2023-05-27T04:48:53;16.80;38.90
79571;DHT22;69034;49.444;7.758;2023-05-27T04:52:54;16.80;38.90
79571;DHT22;69034;49.444;7.758;2023-05-27T04:56:56;16.70;39.00
79571;DHT22;69034;49.444;7.758;2023-05-27T05:00:56;16.70;39.10
79571;DHT22;69034;49.444;7.758;2023-05-27T05:04:57;16.60;39.20
79571;DHT22;69034;49.444;7.758;2023-05-27T05:08:58;16.60;39.30
79571;DHT22;69034;49.444;7.758;2023-05-27T05:13:01;16.60;39.30
79571;DHT22;69034;49.444;7.758;2023-05-27T05:17:02;16.70;39.30
79571;DHT22;69034;49.444;7.758;2023-05-27T05:21:03;16.70;39.30
79571;DHT22;69034;49.444;7.758;2023-05-27T05:25:05;16.70;39.20
79571;DHT22;69034;49.444;7.758;2023-05-27T05:29:07;16.80;39.20
79571;DHT22;69034;49.444;7.758;2023-05-27T05:33:08;16.90;39.20
79571;DHT22;69034;49.444;7.758;2023-05-27T05:37:09;16.90;39.10
79571;DHT22;69034;49.444;7.758;2023-05-27T05:41:11;17.00;39.10
79571;DHT22;69034;49.444;7.758;2023-05-27T05:45:12;17.10;39.10
79571;DHT22;69034;49.444;7.758;2023-05-27T05:49:12;17.20;39.00
79571;DHT22;69034;49.444;7.758;2023-05-27T05:53:13;17.40;38.70
79571;DHT22;69034;49.444;7.758;2023-05-27T05:57:16;17.70;38.50
79571;DHT22;69034;49.444;7.758;2023-05-27T06:01:17;18.00;38.30
79571;DHT22;69034;49.444;7.758;2023-05-27T06:05:21;18.30;38.10
79571;DHT22;69034;49.444;7.758;2023-05-27T06:09:22;18.70;38.10
79571;DHT22;69034;49.444;7.758;2023-05-27T06:13:23;19.00;37.90
79571;DHT22;69034;49.444;7.758;2023-05-27T06:17:24;19.40;37.60
79571;DHT22;69034;49.444;7.758;2023-05-27T06:21:25;19.90;37.20
79571;DHT22;69034;49.444;7.758;2023-05-27T06:25:25;20.40;36.70
79571;DHT22;69034;49.444;7.758;2023-05-27T06:29:26;20.80;37.00
79571;DHT22;69034;49.444;7.758;2023-05-27T06:33:27;21.00;37.20
79571;DHT22;69034;49.444;7.758;2023-05-27T06:37:28;21.40;36.80
79571;DHT22;69034;49.444;7.758;2023-05-27T06:41:30;21.70;36.40
79571;DHT22;69034;49.444;7.758;2023-05-27T06:45:31;21.80;36.00
79571;DHT22;69034;49.444;7.758;2023-05-27T06:49:33;21.90;35.70
79571;DHT22;69034;49.444;7.758;2023-05-27T06:53:33;21.90;35.50
79571;DHT22;69034;49.444;7.758;2023-05-27T06:57:35;22.00;35.70
79571;DHT22;69034;49.444;7.758;2023-05-27T07:01:35;22.30;35.40
79571;DHT22;69034;49.444;7.758;2023-05-27T07:05:36;22.40;35.00
79571;DHT22;69034;49.444;7.758;2023-05-27T07:09:37;22.20;35.40
79571;DHT22;69034;49.444;7.758;2023-05-27T07:13:37;22.20;35.50
79571;DHT22;69034;49.444;7.758;2023-05-27T07:17:39;22.40;35.40
79571;DHT22;69034;49.444;7.758;2023-05-27T07:21:40;22.70;35.10
79571;DHT22;69034;49.444;7.758;2023-05-27T07:25:41;22.90;34.80
79571;DHT22;69034;49.444;7.758;2023-05-27T07:29:41;23.10;34.80
79571;DHT22;69034;49.444;7.758;2023-05-27T07:33:43;23.30;34.50
79571;DHT22;69034;49.444;7.758;2023-05-27T07:37:45;23.50;34.40
79571;DHT22;69034;49.444;7.758;2023-05-27T07:41:46;23.70;34.10
79571;DHT22;69034;49.444;7.758;2023-05-27T07:45:46;23.80;33.80
79571;DHT22;69034;49.444;7.758;2023-05-27T07:49:50;24.00;33.60
79571;DHT22;69034;49.444;7.758;2023-05-27T07:53:50;24.30;33.60
79571;DHT22;69034;49.444;7.758;2023-05-27T07:57:52;24.60;33.50
79571;DHT22;69034;49.444;7.758;2023-05-27T08:01:54;24.80;33.20
79571;DHT22;69034;49.444;7.758;2023-05-27T08:05:54;25.00;33.10
79571;DHT22;69034;49.444;7.758;2023-05-27T08:09:55;25.30;32.70
79571;DHT22;69034;49.444;7.758;2023-05-27T08:13:56;25.70;32.10
79571;DHT22;69034;49.444;7.758;2023-05-27T08:17:56;26.00;31.90
79571;DHT22;69034;49.444;7.758;2023-05-27T08:21:57;26.40;31.60
79571;DHT22;69034;49.444;7.758;2023-05-27T08:25:58;26.60;31.00
79571;DHT22;69034;49.444;7.758;2023-05-27T08:30:00;26.60;30.70
79571;DHT22;69034;49.444;7.758;2023-05-27T08:34:05;26.90;30.80
79571;DHT22;69034;49.444;7.758;2023-05-27T08:38:05;27.70;30.40
79571;DHT22;69034;49.444;7.758;2023-05-27T08:42:06;28.60;29.60
79571;DHT22;69034;49.444;7.758;2023-05-27T08:46:08;29.20;28.90
79571;DHT22;69034;49.444;7.758;2023-05-27T08:50:10;29.90;28.40
79571;DHT22;69034;49.444;7.758;2023-05-27T08:54:10;30.50;28.00
79571;DHT22;69034;49.444;7.758;2023-05-27T08:58:12;31.10;27.60
79571;DHT22;69034;49.444;7.758;2023-05-27T09:02:14;31.70;27.10
79571;DHT22;69034;49.444;7.758;2023-05-27T09:06:15;32.20;26.50
79571;DHT22;69034;49.444;7.758;2023-05-27T09:10:15;32.70;26.20
79571;DHT22;69034;49.444;7.758;2023-05-27T09:14:22;33.30;25.90
79571;DHT22;69034;49.444;7.758;2023-05-27T09:18:27;33.60;25.20
79571;DHT22;69034;49.444;7.758;2023-05-27T09:22:29;34.00;24.50
79571;DHT22;69034;49.444;7.758;2023-05-27T09:26:33;34.30;24.00
79571;DHT22;69034;49.444;7.758;2023-05-27T09:30:33;34.60;19.60
79571;DHT22;69034;49.444;7.758;2023-05-27T09:34:38;35.00;19.40
79571;DHT22;69034;49.444;7.758;2023-05-27T09:38:39;35.40;18.90
79571;DHT22;69034;49.444;7.758;2023-05-27T09:42:46;35.80;18.40
79571;DHT22;69034;49.444;7.758;2023-05-27T09:46:47;36.30;18.10
79571;DHT22;69034;49.444;7.758;2023-05-27T09:50:50;36.80;18.00
79571;DHT22;69034;49.444;7.758;2023-05-27T09:54:53;37.40;17.80
79571;DHT22;69034;49.444;7.758;2023-05-27T09:58:55;38.00;17.20
79571;DHT22;69034;49.444;7.758;2023-05-27T10:02:57;38.60;16.60
79571;DHT22;69034;49.444;7.758;2023-05-27T10:07:02;39.20;16.40
79571;DHT22;69034;49.444;7.758;2023-05-27T10:11:03;39.90;16.00
79571;DHT22;69034;49.444;7.758;2023-05-27T10:15:04;40.50;15.60
79571;DHT22;69034;49.444;7.758;2023-05-27T10:19:09;41.00;15.00
79571;DHT22;69034;49.444;7.758;2023-05-27T10:23:20;41.60;14.90
79571;DHT22;69034;49.444;7.758;2023-05-27T10:27:21;42.10;14.90
79571;DHT22;69034;49.444;7.758;2023-05-27T10:31:29;42.70;14.90
79571;DHT22;69034;49.444;7.758;2023-05-27T10:35:39;43.40;14.50
79571;DHT22;69034;49.444;7.758;2023-05-27T10:39:40;44.10;14.50
79571;DHT22;69034;49.444;7.758;2023-05-27T10:43:41;44.80;14.50
79571;DHT22;69034;49.444;7.758;2023-05-27T10:47:44;45.40;14.00
79571;DHT22;69034;49.444;7.758;2023-05-27T10:51:48;46.10;13.40
79571;DHT22;69034;49.444;7.758;2023-05-27T10:55:49;46.70;12.90
79571;DHT22;69034;49.444;7.758;2023-05-27T10:59:53;47.10;12.30
79571;DHT22;69034;49.444;7.758;2023-05-27T11:03:53;47.40;12.40
79571;DHT22;69034;49.444;7.758;2023-05-27T11:07:54;47.70;12.50
79571;DHT22;69034;49.444;7.758;2023-05-27T11:11:56;48.10;12.20
79571;DHT22;69034;49.444;7.758;2023-05-27T11:15:57;48.50;12.50
79571;DHT22;69034;49.444;7.758;2023-05-27T11:19:57;49.00;12.20
79571;DHT22;69034;49.444;7.758;2023-05-27T11:23:59;49.60;11.70
79571;DHT22;69034;49.444;7.758;2023-05-27T11:27:59;49.90;11.80
79571;DHT22;69034;49.444;7.758;2023-05-27T11:32:00;50.30;11.60
79571;DHT22;69034;49.444;7.758;2023-05-27T11:36:07;50.50;11.20
79571;DHT22;69034;49.444;7.758;2023-05-27T11:40:14;50.90;11.10
79571;DHT22;69034;49.444;7.758;2023-05-27T11:44:14;51.40;10.90
79571;DHT22;69034;49.444;7.758;2023-05-27T11:48:15;51.90;11.00
79571;DHT22;69034;49.444;7.758;2023-05-27T11:52:15;52.40;10.70
79571;DHT22;69034;49.444;7.758;2023-05-27T11:56:16;53.00;10.40
79571;DHT22;69034;49.444;7.758;2023-05-27T12:00:17;53.40;10.30
79571;DHT22;69034;49.444;7.758;2023-05-27T12:04:18;54.00;10.30
79571;DHT22;69034;49.444;7.758;2023-05-27T12:08:18;54.30;10.30
79571;DHT22;69034;49.444;7.758;2023-05-27T12:12:19;54.50;10.30
79571;DHT22;69034;49.444;7.758;2023-05-27T12:16:20;54.80;10.20
79571;DHT22;69034;49.444;7.758;2023-05-27T12:20:21;55.00;9.80
79571;DHT22;69034;49.444;7.758;2023-05-27T12:24:22;54.90;10.20
79571;DHT22;69034;49.444;7.758;2023-05-27T12:28:22;55.00;10.00
79571;DHT22;69034;49.444;7.758;2023-05-27T12:32:23;55.10;9.90
79571;DHT22;69034;49.444;7.758;2023-05-27T12:36:24;55.30;9.90
79571;DHT22;69034;49.444;7.758;2023-05-27T12:40:25;55.70;9.70
79571;DHT22;69034;49.444;7.758;2023-05-27T12:44:26;56.20;9.50
79571;DHT22;69034;49.444;7.758;2023-05-27T12:48:27;56.80;9.80
79571;DHT22;69034;49.444;7.758;2023-05-27T12:52:27;57.20;9.40
79571;DHT22;69034;49.444;7.758;2023-05-27T12:56:28;57.30;9.20
79571;DHT22;69034;49.444;7.758;2023-05-27T13:00:29;57.30;9.00
79571;DHT22;69034;49.444;7.758;2023-05-27T13:04:34;57.50;9.00
79571;DHT22;69034;49.444;7.758;2023-05-27T13:08:35;57.70;8.70
79571;DHT22;69034;49.444;7.758;2023-05-27T13:12:37;56.00;8.20
79571;DHT22;69034;49.444;7.758;2023-05-27T13:16:37;54.40;8.40
79571;DHT22;69034;49.444;7.758;2023-05-27T13:20:38;53.40;8.30
79571;DHT22;69034;49.444;7.758;2023-05-27T13:24:39;52.50;8.20
79571;DHT22;69034;49.444;7.758;2023-05-27T13:28:40;51.90;8.20
79571;DHT22;69034;49.444;7.758;2023-05-27T13:32:42;51.60;8.20
79571;DHT22;69034;49.444;7.758;2023-05-27T13:36:43;51.40;8.30
79571;DHT22;69034;49.444;7.758;2023-05-27T13:40:45;51.20;8.30
79571;DHT22;69034;49.444;7.758;2023-05-27T13:44:45;51.10;8.30
79571;DHT22;69034;49.444;7.758;2023-05-27T13:48:46;51.00;8.40
79571;DHT22;69034;49.444;7.758;2023-05-27T13:52:47;50.80;8.20
79571;DHT22;69034;49.444;7.758;2023-05-27T13:56:50;51.00;8.30
79571;DHT22;69034;49.444;7.758;2023-05-27T14:00:51;50.90;8.20
79571;DHT22;69034;49.444;7.758;2023-05-27T14:04:51;50.90;8.10
79571;DHT22;69034;49.444;7.758;2023-05-27T14:08:53;51.00;8.10
79571;DHT22;69034;49.444;7.758;2023-05-27T14:12:54;51.20;8.20
79571;DHT22;69034;49.444;7.758;2023-05-27T14:16:54;51.40;8.00
79571;DHT22;69034;49.444;7.758;2023-05-27T14:20:56;51.50;7.80
79571;DHT22;69034;49.444;7.758;2023-05-27T14:24:57;51.30;8.00
79571;DHT22;69034;49.444;7.758;2023-05-27T14:28:58;51.40;8.00
79571;DHT22;69034;49.444;7.758;2023-05-27T14:32:59;51.40;7.90
79571;DHT22;69034;49.444;7.758;2023-05-27T14:37:02;51.40;7.90
79571;DHT22;69034;49.444;7.758;2023-05-27T14:41:03;51.30;8.00
79571;DHT22;69034;49.444;7.758;2023-05-27T14:45:04;51.10;8.00
79571;DHT22;69034;49.444;7.758;2023-05-27T14:49:05;51.00;8.10
79571;DHT22;69034;49.444;7.758;2023-05-27T14:53:06;50.70;8.00
79571;DHT22;69034;49.444;7.758;2023-05-27T14:57:07;50.20;8.20
79571;DHT22;69034;49.444;7.758;2023-05-27T15:01:07;49.80;8.20
79571;DHT22;69034;49.444;7.758;2023-05-27T15:05:11;49.40;8.30
79571;DHT22;69034;49.444;7.758;2023-05-27T15:09:11;49.20;8.30
79571;DHT22;69034;49.444;7.758;2023-05-27T15:13:12;49.00;8.50
79571;DHT22;69034;49.444;7.758;2023-05-27T15:17:13;48.80;8.40
79571;DHT22;69034;49.444;7.758;2023-05-27T15:21:14;48.60;8.50
79571;DHT22;69034;49.444;7.758;2023-05-27T15:25:15;48.50;8.40
79571;DHT22;69034;49.444;7.758;2023-05-27T15:29:15;47.90;8.50
79571;DHT22;69034;49.444;7.758;2023-05-27T15:33:17;47.50;8.60
79571;DHT22;69034;49.444;7.758;2023-05-27T15:37:18;47.10;8.70
79571;DHT22;69034;49.444;7.758;2023-05-27T15:41:21;47.00;8.70
79571;DHT22;69034;49.444;7.758;2023-05-27T15:45:22;46.80;8.60
79571;DHT22;69034;49.444;7.758;2023-05-27T15:49:23;46.60;8.70
79571;DHT22;69034;49.444;7.758;2023-05-27T15:53:24;46.30;8.90
79571;DHT22;69034;49.444;7.758;2023-05-27T15:57:24;45.90;8.90
79571;DHT22;69034;49.444;7.758;2023-05-27T16:01:25;45.50;9.00
79571;DHT22;69034;49.444;7.758;2023-05-27T16:05:25;45.00;9.10
79571;DHT22;69034;49.444;7.758;2023-05-27T16:09:26;44.90;9.20
79571;DHT22;69034;49.444;7.758;2023-05-27T16:13:27;44.80;9.20
79571;DHT22;69034;49.444;7.758;2023-05-27T16:17:28;44.70;9.30
79571;DHT22;69034;49.444;7.758;2023-05-27T16:21:28;44.50;9.40
79571;DHT22;69034;49.444;7.758;2023-05-27T16:25:29;44.20;9.30
79571;DHT22;69034;49.444;7.758;2023-05-27T16:29:30;43.80;9.50
79571;DHT22;69034;49.444;7.758;2023-05-27T16:33:31;43.70;9.60
79571;DHT22;69034;49.444;7.758;2023-05-27T16:37:31;43.60;9.60
79571;DHT22;69034;49.444;7.758;2023-05-27T16:41:32;43.30;9.60
79571;DHT22;69034;49.444;7.758;2023-05-27T16:45:33;43.10;9.60
79571;DHT22;69034;49.444;7.758;2023-05-27T16:49:33;42.90;9.60
79571;DHT22;69034;49.444;7.758;2023-05-27T16:53:34;42.70;9.60
79571;DHT22;69034;49.444;7.758;2023-05-27T16:57:35;42.50;9.70
79571;DHT22;69034;49.444;7.758;2023-05-27T17:01:36;42.30;9.70
79571;DHT22;69034;49.444;7.758;2023-05-27T17:05:36;42.10;9.60
79571;DHT22;69034;49.444;7.758;2023-05-27T17:09:37;41.50;9.70
79571;DHT22;69034;49.444;7.758;2023-05-27T17:13:38;41.30;9.90
79571;DHT22;69034;49.444;7.758;2023-05-27T17:17:38;40.90;9.90
79571;DHT22;69034;49.444;7.758;2023-05-27T17:21:40;40.50;9.90
79571;DHT22;69034;49.444;7.758;2023-05-27T17:25:41;40.10;10.00
79571;DHT22;69034;49.444;7.758;2023-05-27T17:29:41;39.50;10.00
79571;DHT22;69034;49.444;7.758;2023-05-27T17:33:44;38.90;10.10
79571;DHT22;69034;49.444;7.758;2023-05-27T17:37:45;38.20;10.20
79571;DHT22;69034;49.444;7.758;2023-05-27T17:41:48;37.60;10.40
79571;DHT22;69034;49.444;7.758;2023-05-27T17:45:49;37.00;10.70
79571;DHT22;69034;49.444;7.758;2023-05-27T17:49:50;36.40;10.90
79571;DHT22;69034;49.444;7.758;2023-05-27T17:53:50;35.90;11.10
79571;DHT22;69034;49.444;7.758;2023-05-27T17:57:52;35.40;11.30
79571;DHT22;69034;49.444;7.758;2023-05-27T18:01:53;35.00;11.50
79571;DHT22;69034;49.444;7.758;2023-05-27T18:05:54;34.60;11.80
79571;DHT22;69034;49.444;7.758;2023-05-27T18:09:54;34.00;12.00
79571;DHT22;69034;49.444;7.758;2023-05-27T18:13:55;33.40;12.30
79571;DHT22;69034;49.444;7.758;2023-05-27T18:17:55;32.80;12.60
79571;DHT22;69034;49.444;7.758;2023-05-27T18:21:58;32.30;12.90
79571;DHT22;69034;49.444;7.758;2023-05-27T18:25:59;31.80;13.20
79571;DHT22;69034;49.444;7.758;2023-05-27T18:30:00;31.40;13.60
79571;DHT22;69034;49.444;7.758;2023-05-27T18:34:01;30.90;13.90
79571;DHT22;69034;49.444;7.758;2023-05-27T18:38:01;30.30;14.40
79571;DHT22;69034;49.444;7.758;2023-05-27T18:42:02;29.80;14.80
79571;DHT22;69034;49.444;7.758;2023-05-27T18:46:03;29.20;15.20
79571;DHT22;69034;49.444;7.758;2023-05-27T18:50:04;28.80;15.60
79571;DHT22;69034;49.444;7.758;2023-05-27T18:54:05;28.40;16.00
79571;DHT22;69034;49.444;7.758;2023-05-27T18:58:06;28.00;16.40
79571;DHT22;69034;49.444;7.758;2023-05-27T19:02:07;27.70;16.70
79571;DHT22;69034;49.444;7.758;2023-05-27T19:06:08;27.40;17.00
79571;DHT22;69034;49.444;7.758;2023-05-27T19:10:09;27.10;17.40
79571;DHT22;69034;49.444;7.758;2023-05-27T19:14:10;26.80;17.70
79571;DHT22;69034;49.444;7.758;2023-05-27T19:18:10;26.60;18.10
79571;DHT22;69034;49.444;7.758;2023-05-27T19:22:11;26.40;18.30
79571;DHT22;69034;49.444;7.758;2023-05-27T19:26:12;26.20;18.50
79571;DHT22;69034;49.444;7.758;2023-05-27T19:30:13;26.00;18.70
79571;DHT22;69034;49.444;7.758;2023-05-27T19:34:14;25.80;19.00
79571;DHT22;69034;49.444;7.758;2023-05-27T19:38:15;25.70;19.30
79571;DHT22;69034;49.444;7.758;2023-05-27T19:42:18;25.50;19.50
79571;DHT22;69034;49.444;7.758;2023-05-27T19:46:19;25.30;19.80
79571;DHT22;69034;49.444;7.758;2023-05-27T19:50:19;25.10;24.10
79571;DHT22;69034;49.444;7.758;2023-05-27T19:54:21;25.00;24.30
79571;DHT22;69034;49.444;7.758;2023-05-27T19:58:21;24.90;24.50
79571;DHT22;69034;49.444;7.758;2023-05-27T20:02:26;24.80;24.70
79571;DHT22;69034;49.444;7.758;2023-05-27T20:06:27;24.60;25.00
79571;DHT22;69034;49.444;7.758;2023-05-27T20:10:28;24.50;25.20
79571;DHT22;69034;49.444;7.758;2023-05-27T20:14:28;24.40;25.50
79571;DHT22;69034;49.444;7.758;2023-05-27T20:18:29;24.30;25.70
79571;DHT22;69034;49.444;7.758;2023-05-27T20:22:30;24.20;26.00
79571;DHT22;69034;49.444;7.758;2023-05-27T20:26:31;24.00;26.30
79571;DHT22;69034;49.444;7.758;2023-05-27T20:30:31;23.80;26.70
79571;DHT22;69034;49.444;7.758;2023-05-27T20:34:32;23.50;26.90
79571;DHT22;69034;49.444;7.758;2023-05-27T20:38:33;23.30;27.10
79571;DHT22;69034;49.444;7.758;2023-05-27T20:42:34;23.10;27.20
79571;DHT22;69034;49.444;7.758;2023-05-27T20:46:35;22.90;27.20
79571;DHT22;69034;49.444;7.758;2023-05-27T20:50:36;22.70;27.40
79571;DHT22;69034;49.444;7.758;2023-05-27T20:54:37;22.60;27.60
79571;DHT22;69034;49.444;7.758;2023-05-27T20:58:37;22.40;27.70
79571;DHT22;69034;49.444;7.758;2023-05-27T21:02:38;22.20;27.90
79571;DHT22;69034;49.444;7.758;2023-05-27T21:06:39;22.10;28.10
79571;DHT22;69034;49.444;7.758;2023-05-27T21:10:39;22.00;28.20
79571;DHT22;69034;49.444;7.758;2023-05-27T21:14:40;21.80;28.40
79571;DHT22;69034;49.444;7.758;2023-05-27T21:18:41;21.70;28.60
79571;DHT22;69034;49.444;7.758;2023-05-27T21:22:41;21.60;28.80
79571;DHT22;69034;49.444;7.758;2023-05-27T21:26:42;21.40;29.20
79571;DHT22;69034;49.444;7.758;2023-05-27T21:30:44;21.30;29.50
79571;DHT22;69034;49.444;7.758;2023-05-27T21:34:45;21.20;29.60
79571;DHT22;69034;49.444;7.758;2023-05-27T21:38:45;21.10;29.70
79571;DHT22;69034;49.444;7.758;2023-05-27T21:42:46;21.10;29.90
79571;DHT22;69034;49.444;7.758;2023-05-27T21:46:47;21.20;29.90
79571;DHT22;69034;49.444;7.758;2023-05-27T21:50:47;21.30;29.80
79571;DHT22;69034;49.444;7.758;2023-05-27T21:54:48;21.30;29.80
79571;DHT22;69034;49.444;7.758;2023-05-27T21:58:49;21.30;29.90
79571;DHT22;69034;49.444;7.758;2023-05-27T22:02:50;21.30;29.90
79571;DHT22;69034;49.444;7.758;2023-05-27T22:06:50;21.30;30.00
79571;DHT22;69034;49.444;7.758;2023-05-27T22:10:51;21.30;30.10
79571;DHT22;69034;49.444;7.758;2023-05-27T22:14:53;21.20;30.10
79571;DHT22;69034;49.444;7.758;2023-05-27T22:18:53;21.20;30.20
79571;DHT22;69034;49.444;7.758;2023-05-27T22:22:54;21.10;30.20
79571;DHT22;69034;49.444;7.758;2023-05-27T22:26:55;21.10;30.40
79571;DHT22;69034;49.444;7.758;2023-05-27T22:30:56;21.00;30.40
79571;DHT22;69034;49.444;7.758;2023-05-27T22:34:56;20.90;30.50
79571;DHT22;69034;49.444;7.758;2023-05-27T22:38:57;20.90;30.60
79571;DHT22;69034;49.444;7.758;2023-05-27T22:42:57;20.80;30.70
79571;DHT22;69034;49.444;7.758;2023-05-27T22:46:58;20.70;30.80
79571;DHT22;69034;49.444;7.758;2023-05-27T22:50:59;20.60;30.80
79571;DHT22;69034;49.444;7.758;2023-05-27T22:54:59;20.60;31.00
79571;DHT22;69034;49.444;7.758;2023-05-27T22:59:00;20.50;31.00
79571;DHT22;69034;49.444;7.758;2023-05-27T23:03:01;20.40;31.20
79571;DHT22;69034;49.444;7.758;2023-05-27T23:07:01;20.40;31.20
79571;DHT22;69034;49.444;7.758;2023-05-27T23:11:02;20.30;31.30
79571;DHT22;69034;49.444;7.758;2023-05-27T23:15:03;20.10;31.50
79571;DHT22;69034;49.444;7.758;2023-05-27T23:19:04;19.80;31.70
79571;DHT22;69034;49.444;7.758;2023-05-27T23:23:04;19.70;32.00
79571;DHT22;69034;49.444;7.758;2023-05-27T23:27:05;19.40;32.30
79571;DHT22;69034;49.444;7.758;2023-05-27T23:31:06;19.30;32.40
79571;DHT22;69034;49.444;7.758;2023-05-27T23:35:07;19.20;32.60
79571;DHT22;69034;49.444;7.758;2023-05-27T23:39:08;19.10;32.90
79571;DHT22;69034;49.444;7.758;2023-05-27T23:43:08;18.90;33.20
79571;DHT22;69034;49.444;7.758;2023-05-27T23:47:09;18.80;33.30
79571;DHT22;69034;49.444;7.758;2023-05-27T23:51:09;18.70;33.40
79571;DHT22;69034;49.444;7.758;2023-05-27T23:55:10;18.60;33.50
79571;DHT22;69034;49.444;7.758;2023-05-27T23:59:11;18.50;33.70
